San Jose, Guatemala
Current Conditions -  °F | °C
As of 10:00 AM on Sunday 23 Nov 2014 (Local Time) from MGSJ Reporting Station
Scattered Clouds Scattered Clouds  
Wind Chill: 84°   Ceiling: Unl
Heat Index: 91°   Visibility: 6mi
Dew Point: 73°   Wind: 5mph
Humidity: 70%   Direction: 360°N
Pressure: 29.91"   Gusts: NA
Location:  13.92°N, 90.82°W
Report Text: MGSJ 231600Z 36004KT CAVOK 29/23 Q1013 A2991 SCT100
Loading
Personal Weather Stations






























Interactive Weather Map New forecast layout! Learn more

10-Day Weather Forecast

Advertisements
Track Severe Weather on mobile